Time;durP1;ratioP1;P1;durP2;ratioP2;P2;SDS_P1;SDS_P2;PMS_P1;PMS_P2;Temp;Humidity;BMP_temperature;BMP_pressure;BME280_temperature;BME280_humidity;BME280_pressure;Samples;Min_cycle;Max_cycle;Signal;HPM_P1;HPM_P2
2023/09/19 00:00:33;;;;;;;3.92;2.38;;;19.30;99.90;;;;;;5092250;28;20208;-69
2023/09/19 00:03:00;;;;;;;5.53;2.65;;;19.40;99.90;;;;;;5092589;28;20255;-70
2023/09/19 00:05:31;;;;;;;7.72;4.05;;;19.30;99.90;;;;;;5091822;28;20236;-70
2023/09/19 00:07:59;;;;;;;6.30;2.92;;;19.40;99.90;;;;;;5092430;28;20202;-70
2023/09/19 00:10:26;;;;;;;5.80;3.00;;;19.30;99.90;;;;;;5091552;28;20668;-71
2023/09/19 00:12:54;;;;;;;6.68;3.13;;;19.30;99.90;;;;;;5092295;28;20241;-70
2023/09/19 00:15:21;;;;;;;6.13;2.50;;;19.40;99.90;;;;;;5091947;28;20292;-71
2023/09/19 00:17:48;;;;;;;5.07;2.65;;;19.40;99.90;;;;;;5092541;28;20293;-71
2023/09/19 00:20:17;;;;;;;4.68;2.35;;;19.30;99.90;;;;;;5092451;28;20288;-71
2023/09/19 00:22:45;;;;;;;6.10;1.80;;;19.30;99.90;;;;;;5091923;28;20216;-71
2023/09/19 00:25:15;;;;;;;4.78;1.90;;;19.40;99.90;;;;;;5092134;28;20202;-71
2023/09/19 00:27:43;;;;;;;2.95;1.75;;;19.40;99.90;;;;;;5091733;28;20197;-71
2023/09/19 00:30:14;;;;;;;4.43;2.35;;;19.30;99.90;;;;;;5092257;28;20201;-72
2023/09/19 00:32:41;;;;;;;3.72;1.90;;;19.30;99.90;;;;;;5091606;28;20328;-70
2023/09/19 00:35:10;;;;;;;10.32;2.08;;;19.30;99.90;;;;;;5091792;28;20305;-70
2023/09/19 00:37:37;;;;;;;3.03;1.55;;;19.30;99.90;;;;;;5091374;28;20567;-69
2023/09/19 00:40:11;;;;;;;6.47;2.25;;;19.20;99.90;;;;;;5092022;28;20248;-69
2023/09/19 00:42:39;;;;;;;3.80;1.90;;;19.20;99.90;;;;;;5091465;28;20258;-70
2023/09/19 00:45:09;;;;;;;4.90;2.35;;;19.10;99.90;;;;;;5091862;28;20237;-71
2023/09/19 00:47:36;;;;;;;4.97;2.63;;;19.20;99.90;;;;;;5091267;28;20657;-71
2023/09/19 00:50:07;;;;;;;4.28;2.08;;;19.20;99.90;;;;;;5091517;28;20237;-71
2023/09/19 00:52:36;;;;;;;7.75;2.53;;;19.20;99.90;;;;;;5091170;28;20265;-71
2023/09/19 00:55:06;;;;;;;3.50;1.67;;;19.30;99.90;;;;;;5091784;28;20202;-71
2023/09/19 00:57:34;;;;;;;5.47;2.05;;;19.20;99.90;;;;;;5091388;28;20236;-71
2023/09/19 01:00:05;;;;;;;5.00;2.10;;;19.20;99.90;;;;;;5091619;28;20278;-69
2023/09/19 01:02:32;;;;;;;4.65;2.22;;;19.20;99.90;;;;;;5090763;28;20201;-70
2023/09/19 01:05:00;;;;;;;6.40;1.95;;;19.30;99.90;;;;;;5091113;28;20244;-70
2023/09/19 01:07:29;;;;;;;8.98;2.75;;;19.30;99.90;;;;;;5091212;28;20237;-70
2023/09/19 01:09:58;;;;;;;4.95;2.05;;;19.20;99.90;;;;;;5091542;28;20292;-71
2023/09/19 01:12:40;;;;;;;3.40;1.80;;;19.20;99.90;;;;;;5091098;28;20270;-71
2023/09/19 01:15:18;;;;;;;4.35;1.75;;;19.20;99.90;;;;;;5091049;28;20201;-70
2023/09/19 01:17:54;;;;;;;5.88;2.35;;;19.20;99.90;;;;;;5090947;28;20213;-69
2023/09/19 01:20:34;;;;;;;5.50;2.25;;;19.20;99.90;;;;;;5090767;28;20284;-70
2023/09/19 01:23:14;;;;;;;5.90;3.00;;;19.20;99.90;;;;;;5090667;28;20284;-69
2023/09/19 01:26:08;;;;;;;5.65;2.38;;;19.20;99.90;;;;;;5090736;28;20237;-69
2023/09/19 01:28:47;;;;;;;4.65;1.88;;;19.20;99.90;;;;;;5090765;28;20261;-69
2023/09/19 01:31:19;;;;;;;5.80;2.55;;;19.10;99.90;;;;;;5091173;28;20251;-67
2023/09/19 01:34:00;;;;;;;2.33;1.83;;;19.10;99.90;;;;;;5091603;28;20201;-70
2023/09/19 01:36:34;;;;;;;4.00;2.03;;;19.10;99.90;;;;;;5090619;28;20284;-72
2023/09/19 01:39:05;;;;;;;3.28;1.70;;;19.10;99.90;;;;;;5090956;28;20201;-72
2023/09/19 01:41:45;;;;;;;3.80;2.10;;;19.10;99.90;;;;;;5090626;28;20209;-72
2023/09/19 01:44:20;;;;;;;4.18;1.88;;;19.10;99.90;;;;;;5091001;28;20228;-72
2023/09/19 01:46:49;;;;;;;5.55;1.83;;;19.00;99.90;;;;;;5090826;28;20626;-71
2023/09/19 01:49:25;;;;;;;3.55;1.85;;;19.00;99.90;;;;;;5091315;28;20198;-71
2023/09/19 01:52:04;;;;;;;2.55;1.88;;;18.90;99.90;;;;;;5090680;28;20319;-70
2023/09/19 01:54:38;;;;;;;8.48;2.85;;;18.90;99.90;;;;;;5090411;28;20236;-70
2023/09/19 01:57:15;;;;;;;8.52;2.42;;;18.90;99.90;;;;;;5090832;28;20204;-71
2023/09/19 01:59:50;;;;;;;7.63;2.13;;;18.80;99.90;;;;;;5090474;28;20288;-70
2023/09/19 02:02:22;;;;;;;5.25;2.20;;;18.90;99.90;;;;;;5091089;28;20215;-70
2023/09/19 02:04:50;;;;;;;6.30;1.95;;;18.90;99.90;;;;;;5090616;28;20205;-71
2023/09/19 02:07:17;;;;;;;6.97;2.17;;;18.80;99.90;;;;;;5090987;28;20265;-69
2023/09/19 02:09:44;;;;;;;3.40;1.80;;;18.80;99.90;;;;;;5090910;28;20288;-70
2023/09/19 02:12:11;;;;;;;2.28;2.05;;;18.80;99.90;;;;;;5090754;28;20319;-70
2023/09/19 02:14:38;;;;;;;5.03;2.45;;;18.80;99.90;;;;;;5090090;28;20816;-70
2023/09/19 02:17:06;;;;;;;5.80;2.13;;;18.70;99.90;;;;;;5090669;28;20642;-70
2023/09/19 02:19:36;;;;;;;3.03;1.90;;;18.80;99.90;;;;;;5090294;28;20228;-69
2023/09/19 02:22:07;;;;;;;3.10;2.08;;;18.70;99.90;;;;;;5090691;28;20266;-72
2023/09/19 02:24:35;;;;;;;2.95;2.08;;;18.70;99.90;;;;;;5090214;28;20245;-68
2023/09/19 02:27:04;;;;;;;3.33;1.90;;;18.70;99.90;;;;;;5090441;28;20201;-69
2023/09/19 02:29:31;;;;;;;6.80;2.78;;;18.70;99.90;;;;;;5089934;28;20661;-69
2023/09/19 02:31:58;;;;;;;5.07;2.22;;;18.60;99.90;;;;;;5090671;28;20673;-69
2023/09/19 02:34:25;;;;;;;4.32;1.67;;;18.70;99.90;;;;;;5093691;28;20197;-69
2023/09/19 02:36:55;;;;;;;4.05;2.20;;;18.70;99.90;;;;;;5094370;28;20692;-69
2023/09/19 02:39:23;;;;;;;3.92;1.83;;;18.70;99.90;;;;;;5093709;28;20206;-69
2023/09/19 02:41:50;;;;;;;3.42;1.85;;;18.70;99.90;;;;;;5094354;28;20201;-69
2023/09/19 02:44:19;;;;;;;3.88;1.90;;;18.70;99.90;;;;;;5094150;28;20208;-69
2023/09/19 02:46:47;;;;;;;4.57;2.28;;;18.60;99.90;;;;;;5094298;28;20296;-69
2023/09/19 02:49:14;;;;;;;6.40;2.72;;;18.60;99.90;;;;;;5094312;28;20204;-69
2023/09/19 02:51:41;;;;;;;5.32;2.33;;;18.50;99.90;;;;;;5093523;28;20206;-70
2023/09/19 02:54:10;;;;;;;5.55;2.22;;;18.50;99.90;;;;;;5093919;28;21024;-69
2023/09/19 02:56:37;;;;;;;3.97;2.08;;;18.50;99.90;;;;;;5093453;28;20699;-69
2023/09/19 02:59:05;;;;;;;4.00;2.20;;;18.40;99.90;;;;;;5093597;28;20202;-69
2023/09/19 03:01:33;;;;;;;5.60;2.45;;;18.40;99.90;;;;;;5093211;28;20244;-69
2023/09/19 03:04:00;;;;;;;7.25;1.58;;;18.40;99.90;;;;;;5093520;28;20678;-70
2023/09/19 03:06:27;;;;;;;4.72;2.25;;;18.40;99.90;;;;;;5093256;28;20685;-70
2023/09/19 03:08:55;;;;;;;3.67;2.20;;;18.50;99.90;;;;;;5093675;28;20201;-71
2023/09/19 03:11:24;;;;;;;3.95;2.20;;;18.50;99.90;;;;;;5093291;28;20627;-69
2023/09/19 03:13:55;;;;;;;6.78;2.05;;;18.50;99.90;;;;;;5093165;28;20290;-69
2023/09/19 03:16:22;;;;;;;6.95;2.65;;;18.50;99.90;;;;;;5093210;28;20206;-68
2023/09/19 03:18:49;;;;;;;4.15;2.08;;;18.40;99.90;;;;;;5093670;28;20201;-69
2023/09/19 03:21:16;;;;;;;4.22;2.15;;;18.40;99.90;;;;;;5093682;28;20292;-70
2023/09/19 03:23:45;;;;;;;7.82;2.75;;;18.40;99.90;;;;;;5093375;28;20206;-70
2023/09/19 03:26:14;;;;;;;3.55;1.77;;;18.40;99.90;;;;;;5093151;28;20635;-69
2023/09/19 03:28:43;;;;;;;6.85;2.33;;;18.50;99.90;;;;;;5092606;28;20201;-70
2023/09/19 03:31:10;;;;;;;4.70;2.03;;;18.40;99.90;;;;;;5093458;28;20225;-69
2023/09/19 03:33:38;;;;;;;3.33;2.10;;;18.30;99.90;;;;;;5092638;28;20661;-69
2023/09/19 03:36:06;;;;;;;5.43;2.10;;;18.30;99.90;;;;;;5093517;28;20205;-72
2023/09/19 03:38:34;;;;;;;6.65;2.80;;;18.30;99.90;;;;;;5092914;28;20657;-71
2023/09/19 03:41:01;;;;;;;3.95;2.28;;;18.30;99.90;;;;;;5092961;28;20202;-71
2023/09/19 03:43:28;;;;;;;3.10;2.03;;;18.30;99.90;;;;;;5092450;28;20232;-70
2023/09/19 03:45:56;;;;;;;5.30;2.17;;;18.20;99.90;;;;;;5092248;28;20254;-71
2023/09/19 03:48:23;;;;;;;4.20;1.92;;;18.20;99.90;;;;;;5092482;28;20244;-71
2023/09/19 03:50:51;;;;;;;3.63;1.85;;;18.20;99.90;;;;;;5092686;28;20292;-71
2023/09/19 03:53:17;;;;;;;5.40;2.63;;;18.20;99.90;;;;;;5093095;28;20237;-71
2023/09/19 03:55:47;;;;;;;5.57;2.28;;;18.20;99.90;;;;;;5092736;28;20538;-71
2023/09/19 03:58:13;;;;;;;8.52;1.88;;;18.20;99.90;;;;;;5092967;28;20212;-70
2023/09/19 04:00:40;;;;;;;3.50;1.90;;;18.30;99.90;;;;;;5092597;28;20304;-70
2023/09/19 04:03:10;;;;;;;7.20;3.13;;;18.20;99.90;;;;;;5092622;28;20592;-70
2023/09/19 04:05:37;;;;;;;2.45;2.00;;;18.10;99.90;;;;;;5092073;28;20213;-70
2023/09/19 04:08:04;;;;;;;5.25;3.08;;;18.10;99.90;;;;;;5092496;28;20288;-71
2023/09/19 04:10:31;;;;;;;4.63;1.75;;;18.00;99.90;;;;;;5092142;28;20255;-71
2023/09/19 04:12:58;;;;;;;8.70;2.28;;;18.10;99.90;;;;;;5092645;28;20320;-70
2023/09/19 04:15:25;;;;;;;5.22;2.25;;;18.10;99.90;;;;;;5091963;28;20293;-70
2023/09/19 04:17:52;;;;;;;4.75;2.00;;;18.20;99.90;;;;;;5092470;28;20288;-71
2023/09/19 04:20:22;;;;;;;3.25;2.20;;;18.20;99.90;;;;;;5092469;28;20292;-72
2023/09/19 04:22:49;;;;;;;3.63;2.30;;;18.10;99.90;;;;;;5092309;28;20206;-72
2023/09/19 04:25:16;;;;;;;5.18;2.95;;;18.00;99.90;;;;;;5092411;28;20297;-72
2023/09/19 04:27:45;;;;;;;5.55;2.38;;;18.00;99.90;;;;;;5092039;28;20233;-72
2023/09/19 04:30:12;;;;;;;4.70;1.90;;;18.00;99.90;;;;;;5092192;28;20202;-72
2023/09/19 04:32:40;;;;;;;5.30;2.03;;;17.90;99.90;;;;;;5091626;28;20275;-72
2023/09/19 04:35:08;;;;;;;5.13;2.03;;;17.80;99.90;;;;;;5092008;28;20197;-70
2023/09/19 04:37:39;;;;;;;4.93;1.98;;;17.90;99.90;;;;;;5091438;28;20205;-71
2023/09/19 04:40:12;;;;;;;5.45;2.28;;;17.70;99.90;;;;;;5091621;28;20197;-71
2023/09/19 04:42:40;;;;;;;4.28;1.55;;;17.70;99.90;;;;;;5091506;28;20263;-71
2023/09/19 04:45:09;;;;;;;5.75;2.33;;;17.70;99.90;;;;;;5091807;28;20288;-72
2023/09/19 04:47:38;;;;;;;3.85;1.90;;;17.70;99.90;;;;;;5091433;28;20280;-72
2023/09/19 04:50:11;;;;;;;3.83;1.92;;;17.80;99.90;;;;;;5091906;28;20206;-71
2023/09/19 04:52:41;;;;;;;5.72;1.98;;;17.80;99.90;;;;;;5091037;28;20324;-72
2023/09/19 04:55:10;;;;;;;5.03;2.60;;;17.80;99.90;;;;;;5090873;28;20210;-72
2023/09/19 04:57:38;;;;;;;4.65;2.38;;;17.70;99.90;;;;;;5091036;28;20673;-72
2023/09/19 05:00:12;;;;;;;3.22;1.98;;;17.70;99.90;;;;;;5091289;28;20237;-72
2023/09/19 05:02:39;;;;;;;6.80;2.63;;;17.70;99.90;;;;;;5090770;28;20652;-72
2023/09/19 05:05:08;;;;;;;4.60;2.30;;;17.70;99.90;;;;;;5091293;28;20252;-72
2023/09/19 05:07:35;;;;;;;4.60;2.33;;;17.70;99.90;;;;;;5091113;28;20244;-72
2023/09/19 05:10:05;;;;;;;5.30;1.70;;;17.60;99.90;;;;;;5091124;28;20211;-69
2023/09/19 05:12:32;;;;;;;4.45;2.30;;;17.50;99.90;;;;;;5090859;28;20254;-70
2023/09/19 05:14:59;;;;;;;3.58;2.20;;;17.60;99.90;;;;;;5091298;28;20202;-69
2023/09/19 05:17:26;;;;;;;4.38;2.13;;;17.70;99.90;;;;;;5091084;28;20212;-67
2023/09/19 05:19:53;;;;;;;4.38;2.50;;;17.60;99.90;;;;;;5091358;28;20240;-68
2023/09/19 05:22:20;;;;;;;7.93;2.95;;;17.60;99.90;;;;;;5090800;28;20700;-67
2023/09/19 05:24:47;;;;;;;5.00;2.75;;;17.70;99.90;;;;;;5091241;28;20244;-68
2023/09/19 05:27:17;;;;;;;3.38;2.63;;;17.50;99.90;;;;;;5091474;28;20308;-68
2023/09/19 05:29:44;;;;;;;5.55;2.38;;;17.40;99.90;;;;;;5091238;28;20205;-71
2023/09/19 05:32:11;;;;;;;3.85;1.95;;;17.40;99.90;;;;;;5091183;28;20292;-71
2023/09/19 05:34:38;;;;;;;4.53;2.60;;;17.40;99.90;;;;;;5090768;28;20298;-71
2023/09/19 05:37:06;;;;;;;3.88;3.03;;;17.40;99.90;;;;;;5090968;28;20566;-71
2023/09/19 05:39:33;;;;;;;7.18;2.10;;;17.40;99.90;;;;;;5090463;28;20202;-72
2023/09/19 05:42:01;;;;;;;9.40;3.15;;;17.40;99.90;;;;;;5090613;28;20240;-71
2023/09/19 05:44:29;;;;;;;4.30;2.28;;;17.50;99.90;;;;;;5086377;28;20194;-71
2023/09/19 05:46:57;;;;;;;6.00;2.42;;;17.60;99.90;;;;;;5079131;28;20198;-71
2023/09/19 05:49:25;;;;;;;6.88;3.47;;;17.60;99.90;;;;;;5070238;28;20205;-71
2023/09/19 05:51:53;;;;;;;6.07;2.72;;;17.50;99.90;;;;;;5070338;28;20220;-71
2023/09/19 05:54:21;;;;;;;5.90;2.20;;;17.50;99.90;;;;;;5070058;28;20229;-71
2023/09/19 05:56:48;;;;;;;5.75;2.30;;;17.60;99.90;;;;;;5071154;28;20279;-71
2023/09/19 05:59:16;;;;;;;6.18;2.30;;;17.70;99.90;;;;;;5071094;28;20277;-70
2023/09/19 06:01:44;;;;;;;8.35;3.72;;;17.70;99.90;;;;;;5072760;28;20206;-71
2023/09/19 06:04:11;;;;;;;7.55;3.75;;;17.70;99.90;;;;;;5081049;28;20240;-68
2023/09/19 06:06:39;;;;;;;9.65;3.70;;;17.70;99.90;;;;;;5076290;28;20249;-68
2023/09/19 06:09:08;;;;;;;9.90;3.63;;;17.70;99.90;;;;;;5073427;28;20202;-69
2023/09/19 06:11:35;;;;;;;7.68;2.95;;;17.70;99.90;;;;;;5084476;28;20216;-67
2023/09/19 06:14:02;;;;;;;6.10;2.38;;;17.70;99.90;;;;;;5082206;28;20324;-72
2023/09/19 06:16:29;;;;;;;10.75;3.05;;;17.80;99.90;;;;;;5093929;28;20205;-72
2023/09/19 06:18:59;;;;;;;6.05;2.15;;;17.90;99.90;;;;;;5074080;28;20206;-72
2023/09/19 06:21:26;;;;;;;7.40;2.58;;;17.90;99.90;;;;;;5073710;28;20206;-72
2023/09/19 06:23:53;;;;;;;5.13;2.53;;;17.90;99.90;;;;;;5074555;28;20287;-72
2023/09/19 06:26:21;;;;;;;6.40;2.65;;;17.90;99.90;;;;;;5074101;28;20234;-71
2023/09/19 06:28:48;;;;;;;8.38;3.65;;;18.00;99.90;;;;;;5094677;28;20235;-72
2023/09/19 06:31:14;;;;;;;8.13;2.80;;;18.00;99.90;;;;;;5082623;28;20652;-71
2023/09/19 06:33:43;;;;;;;4.15;1.95;;;18.00;99.90;;;;;;5091741;28;20233;-72
2023/09/19 06:36:11;;;;;;;7.80;2.92;;;18.10;99.90;;;;;;5085993;28;20669;-70
2023/09/19 06:38:39;;;;;;;6.15;3.22;;;18.10;99.90;;;;;;5086102;28;20255;-70
2023/09/19 06:41:07;;;;;;;10.38;3.63;;;18.00;99.90;;;;;;5085049;28;20701;-70
2023/09/19 06:43:33;;;;;;;7.28;3.38;;;18.10;99.90;;;;;;5089100;28;20228;-70
2023/09/19 06:46:00;;;;;;;10.02;3.85;;;18.20;99.90;;;;;;5077815;28;20642;-71
2023/09/19 06:48:29;;;;;;;9.85;3.65;;;18.30;99.90;;;;;;5073337;28;20700;-70
2023/09/19 06:50:56;;;;;;;7.78;2.97;;;18.30;99.90;;;;;;5074503;28;20214;-71
2023/09/19 06:53:24;;;;;;;8.82;3.40;;;18.40;99.90;;;;;;5088788;28;20237;-70
2023/09/19 06:55:51;;;;;;;5.97;2.95;;;18.40;99.90;;;;;;5073574;28;20231;-71
2023/09/19 06:58:19;;;;;;;8.73;2.92;;;18.40;99.90;;;;;;5083081;28;20284;-70
2023/09/19 07:00:46;;;;;;;6.13;3.53;;;18.50;99.90;;;;;;5084056;28;20240;-71
2023/09/19 07:03:16;;;;;;;7.13;2.60;;;18.60;99.90;;;;;;5083433;28;20202;-71
2023/09/19 07:05:43;;;;;;;4.28;2.35;;;18.70;99.90;;;;;;5079771;28;20221;-70
2023/09/19 07:08:12;;;;;;;3.08;2.53;;;19.70;99.90;;;;;;5093607;28;20205;-71
2023/09/19 07:10:41;;;;;;;5.95;2.47;;;19.20;99.90;;;;;;5082274;28;20254;-70
2023/09/19 07:13:10;;;;;;;3.08;2.75;;;19.00;99.90;;;;;;5073283;28;20407;-71
2023/09/19 07:15:39;;;;;;;4.43;2.05;;;18.90;99.90;;;;;;5072825;28;20301;-71
2023/09/19 07:18:06;;;;;;;7.32;3.08;;;19.00;99.90;;;;;;5074191;28;20206;-71
2023/09/19 07:20:34;;;;;;;7.20;3.97;;;19.00;99.90;;;;;;5078232;28;20301;-71
2023/09/19 07:23:01;;;;;;;8.98;2.72;;;19.00;99.90;;;;;;5081089;28;20213;-71
2023/09/19 07:25:28;;;;;;;9.82;2.75;;;19.10;99.90;;;;;;5072607;28;20667;-71
2023/09/19 07:27:59;;;;;;;8.48;2.50;;;19.10;99.90;;;;;;5073108;28;20697;-70
2023/09/19 07:30:27;;;;;;;6.43;2.28;;;19.20;99.90;;;;;;5072609;28;20198;-71
2023/09/19 07:32:54;;;;;;;5.00;2.33;;;19.20;99.90;;;;;;5090251;28;20217;-70
2023/09/19 07:35:21;;;;;;;3.88;1.80;;;19.30;99.90;;;;;;5092561;28;20700;-71
2023/09/19 07:37:49;;;;;;;6.45;2.10;;;19.40;99.90;;;;;;5093341;28;20751;-71
2023/09/19 07:40:16;;;;;;;5.38;2.25;;;19.50;99.90;;;;;;5093516;28;20228;-71
2023/09/19 07:42:44;;;;;;;2.83;2.08;;;19.60;99.90;;;;;;5091951;28;20209;-71
2023/09/19 07:45:14;;;;;;;7.90;1.88;;;19.90;99.90;;;;;;5085297;28;20214;-71
2023/09/19 07:47:41;;;;;;;4.07;1.73;;;19.90;99.90;;;;;;5072319;28;20206;-71
2023/09/19 07:50:09;;;;;;;3.58;1.95;;;19.90;99.90;;;;;;5072476;28;20698;-71
2023/09/19 07:52:36;;;;;;;4.32;2.05;;;19.90;99.90;;;;;;5077808;28;20297;-71
2023/09/19 07:55:08;;;;;;;5.50;2.55;;;19.90;99.90;;;;;;5092554;28;20233;-71
2023/09/19 07:57:36;;;;;;;9.07;2.40;;;20.10;99.90;;;;;;5071915;28;20662;-70
2023/09/19 08:00:04;;;;;;;4.22;2.08;;;20.20;99.90;;;;;;5074047;28;20210;-83
2023/09/19 08:02:35;;;;;;;7.60;2.15;;;20.20;99.90;;;;;;5084802;28;20548;-76
2023/09/19 08:05:06;;;;;;;5.68;2.17;;;20.40;99.90;;;;;;5088665;28;20296;-75
2023/09/19 08:07:33;;;;;;;7.32;2.17;;;20.70;99.90;;;;;;5076056;28;20199;-75
2023/09/19 08:10:00;;;;;;;4.82;2.70;;;20.70;99.90;;;;;;5085572;28;20303;-75
2023/09/19 08:12:26;;;;;;;7.82;2.30;;;20.70;99.90;;;;;;5085982;28;20292;-75
2023/09/19 08:14:55;;;;;;;6.78;2.92;;;20.70;99.90;;;;;;5089997;28;20727;-74
2023/09/19 08:17:22;;;;;;;9.23;2.60;;;20.60;99.90;;;;;;5084427;28;20205;-75
2023/09/19 08:19:52;;;;;;;4.38;2.25;;;20.70;99.90;;;;;;5078635;28;20217;-74
2023/09/19 08:22:19;;;;;;;5.40;2.55;;;21.00;99.90;;;;;;5087280;28;20285;-73
2023/09/19 08:24:48;;;;;;;9.30;2.35;;;21.50;99.90;;;;;;5083940;28;20296;-74
2023/09/19 08:27:18;;;;;;;4.10;1.92;;;21.50;99.90;;;;;;5085086;28;20201;-73
2023/09/19 08:29:46;;;;;;;4.07;3.00;;;21.40;99.90;;;;;;5081813;28;20256;-74
2023/09/19 08:32:13;;;;;;;7.90;2.30;;;21.40;99.90;;;;;;5070733;28;20198;-75
2023/09/19 08:34:40;;;;;;;8.07;2.60;;;21.40;99.90;;;;;;5083019;28;20355;-74
2023/09/19 08:37:08;;;;;;;3.38;1.98;;;21.50;99.90;;;;;;5078931;28;20689;-75
2023/09/19 08:39:36;;;;;;;3.65;2.08;;;21.50;99.90;;;;;;5089806;28;20213;-74
2023/09/19 08:42:04;;;;;;;5.45;1.83;;;21.80;99.90;;;;;;5091954;28;20198;-77
2023/09/19 08:44:31;;;;;;;8.80;2.42;;;22.20;99.90;;;;;;5082947;28;20209;-74
2023/09/19 08:47:10;;;;;;;9.80;3.00;;;22.30;99.90;;;;;;5082738;28;20233;-75
2023/09/19 08:49:45;;;;;;;7.18;1.98;;;22.70;99.90;;;;;;5090312;28;20209;-75
2023/09/19 08:52:23;;;;;;;4.25;2.30;;;23.00;99.90;;;;;;5082060;28;20197;-75
2023/09/19 08:54:53;;;;;;;3.20;1.90;;;23.30;99.90;;;;;;5081049;28;20229;-75
2023/09/19 08:57:22;;;;;;;8.70;2.88;;;23.40;99.90;;;;;;5078428;28;20734;-72
2023/09/19 08:59:49;;;;;;;4.72;1.85;;;22.60;99.90;;;;;;5071063;28;20669;-72
2023/09/19 09:02:18;;;;;;;5.82;2.50;;;22.40;99.90;;;;;;5079169;28;20216;-76
2023/09/19 09:04:47;;;;;;;5.47;2.15;;;22.50;99.90;;;;;;5071083;28;20213;-77
2023/09/19 09:07:16;;;;;;;3.70;2.30;;;22.30;99.90;;;;;;5076253;28;20742;-75
2023/09/19 09:09:44;;;;;;;3.63;2.03;;;22.50;99.90;;;;;;5091236;28;20337;-76
2023/09/19 09:12:13;;;;;;;4.65;1.77;;;22.70;99.90;;;;;;5091084;28;20209;-77
2023/09/19 09:14:41;;;;;;;3.53;1.50;;;23.50;99.90;;;;;;5090364;28;20659;-75
2023/09/19 09:17:08;;;;;;;4.57;1.65;;;23.50;99.90;;;;;;5090885;28;20201;-77
2023/09/19 09:19:35;;;;;;;3.47;1.38;;;23.20;99.90;;;;;;5085443;28;20218;-76
2023/09/19 09:22:09;;;;;;;5.85;1.90;;;23.60;99.90;;;;;;5081494;28;20202;-75
2023/09/19 09:24:39;;;;;;;8.68;3.20;;;24.20;99.90;;;;;;5077831;28;20587;-76
2023/09/19 09:27:10;;;;;;;3.83;1.67;;;23.80;99.90;;;;;;5087498;28;20205;-75
2023/09/19 09:29:43;;;;;;;4.13;2.13;;;23.30;99.90;;;;;;5076216;28;20664;-75
2023/09/19 09:32:20;;;;;;;4.82;1.92;;;22.90;99.90;;;;;;5083549;28;20205;-75
2023/09/19 09:34:50;;;;;;;5.40;2.35;;;22.60;99.90;;;;;;5086679;28;20656;-75
2023/09/19 09:37:19;;;;;;;3.13;1.88;;;22.40;99.90;;;;;;5089377;28;20236;-75
2023/09/19 09:39:53;;;;;;;6.15;1.95;;;22.20;99.90;;;;;;5088281;28;20710;-75
2023/09/19 09:42:35;;;;;;;6.53;2.75;;;22.30;99.90;;;;;;5069475;28;20598;-73
2023/09/19 09:45:19;;;;;;;7.18;2.47;;;22.40;99.90;;;;;;5070126;28;20297;-74
2023/09/19 09:47:55;;;;;;;2.90;1.67;;;23.00;99.90;;;;;;5079619;28;20201;-76
2023/09/19 09:50:29;;;;;;;6.32;1.77;;;23.40;99.90;;;;;;5081271;28;20201;-75
2023/09/19 09:53:06;;;;;;;4.47;1.63;;;24.20;99.90;;;;;;5076862;28;20271;-76
2023/09/19 09:55:59;;;;;;;3.45;1.60;;;24.90;99.90;;;;;;5079782;28;20232;-73
2023/09/19 09:58:29;;;;;;;6.03;1.92;;;24.40;99.90;;;;;;5089797;28;20196;-74
2023/09/19 10:01:00;;;;;;;3.58;2.47;;;25.40;99.90;;;;;;5075022;28;20681;-75
2023/09/19 10:03:38;;;;;;;3.60;1.48;;;27.60;99.90;;;;;;5069644;28;20301;-77
2023/09/19 10:06:19;;;;;;;1.98;1.15;;;29.40;99.90;;;;;;5070731;28;20643;-78
2023/09/19 10:09:04;;;;;;;4.00;1.88;;;27.20;99.90;;;;;;5085137;28;20208;-74
2023/09/19 10:11:32;;;;;;;6.45;2.33;;;28.90;99.90;;;;;;5084495;28;20206;-74
2023/09/19 10:14:06;;;;;;;4.53;1.73;;;31.70;99.90;;;;;;5070183;28;20237;-76
2023/09/19 10:16:35;;;;;;;5.15;1.92;;;34.90;99.90;;;;;;5082362;28;20296;-75
2023/09/19 10:19:08;;;;;;;8.50;1.88;;;31.80;99.90;;;;;;5090387;28;20206;-74
2023/09/19 10:21:37;;;;;;;3.00;1.95;;;28.30;99.90;;;;;;5078414;28;20205;-73
2023/09/19 10:24:08;;;;;;;3.17;1.75;;;26.20;99.90;;;;;;5076478;28;20304;-73
2023/09/19 10:26:38;;;;;;;2.95;1.85;;;25.00;99.90;;;;;;5074197;28;20291;-72
2023/09/19 10:29:09;;;;;;;3.42;1.90;;;24.20;99.90;;;;;;5080608;28;20214;-73
2023/09/19 10:31:40;;;;;;;3.70;2.00;;;23.80;99.90;;;;;;5077555;28;20233;-72
2023/09/19 10:34:09;;;;;;;6.03;4.40;;;23.40;99.90;;;;;;5089936;28;20634;-73
2023/09/19 10:36:38;;;;;;;2.70;2.08;;;23.10;99.90;;;;;;5090180;28;20302;-72
2023/09/19 10:39:08;;;;;;;2.08;1.50;;;23.10;99.90;;;;;;5090164;28;20746;-73
2023/09/19 10:41:37;;;;;;;2.47;1.42;;;23.50;99.90;;;;;;5083767;28;20632;-73
2023/09/19 10:44:06;;;;;;;4.13;1.92;;;23.80;99.90;;;;;;5090001;28;20202;-73
2023/09/19 10:46:33;;;;;;;3.72;1.25;;;24.00;99.90;;;;;;5090223;28;20292;-73
2023/09/19 10:49:01;;;;;;;3.58;1.52;;;24.10;99.90;;;;;;5090469;28;20296;-72
2023/09/19 10:51:32;;;;;;;2.53;1.40;;;24.30;99.90;;;;;;5086348;28;20245;-73
2023/09/19 10:54:06;;;;;;;3.55;1.00;;;24.40;99.90;;;;;;5071125;28;20200;-74
2023/09/19 10:56:37;;;;;;;5.10;1.65;;;24.60;99.90;;;;;;5074599;28;20296;-72
2023/09/19 10:59:10;;;;;;;2.40;1.30;;;24.70;99.90;;;;;;5079122;28;20216;-73
2023/09/19 11:01:48;;;;;;;3.17;1.52;;;24.70;99.90;;;;;;5080299;28;20236;-72
2023/09/19 11:04:32;;;;;;;3.58;1.33;;;24.70;99.90;;;;;;5083749;28;20210;-73
2023/09/19 11:07:08;;;;;;;4.05;1.27;;;25.00;99.90;;;;;;5076067;28;20202;-72
2023/09/19 11:09:45;;;;;;;3.58;1.15;;;25.30;99.90;;;;;;5093328;28;20189;-72
2023/09/19 11:12:13;;;;;;;3.80;1.15;;;25.40;99.90;;;;;;5093585;28;20213;-72
2023/09/19 11:14:44;;;;;;;2.20;1.02;;;25.40;99.90;;;;;;5093156;28;20756;-72
2023/09/19 11:17:46;;;;;;;3.25;1.13;;;25.30;99.90;;;;;;5080486;28;20674;-73
2023/09/19 11:20:41;;;;;;;1.77;1.08;;;25.20;99.90;;;;;;5073412;28;20204;-74
2023/09/19 11:23:25;;;;;;;1.23;1.08;;;25.20;99.90;;;;;;5073164;28;20284;-76
2023/09/19 11:25:54;;;;;;;3.28;1.10;;;25.30;99.90;;;;;;5073326;28;21003;-70
2023/09/19 11:28:39;;;;;;;2.42;1.42;;;25.30;99.90;;;;;;5072599;28;20561;-73
2023/09/19 11:31:59;;;;;;;2.30;1.55;;;25.10;99.90;;;;;;5072864;28;20252;-73
2023/09/19 11:34:45;;;;;;;1.73;1.55;;;24.90;99.90;;;;;;5087227;28;20732;-74
2023/09/19 11:40:55;;;;;;;1.40;1.05;;;24.40;99.90;;;;;;5097548;28;20197;-74
2023/09/19 11:43:33;;;;;;;1.27;1.10;;;24.70;99.90;;;;;;5112891;28;20717;-74
2023/09/19 11:46:09;;;;;;;2.30;1.00;;;24.80;99.90;;;;;;5113366;28;20656;-74
2023/09/19 11:48:37;;;;;;;2.97;1.30;;;24.90;99.90;;;;;;5113024;28;20205;-73
2023/09/19 11:51:22;;;;;;;6.25;1.65;;;24.90;99.90;;;;;;5111089;28;20230;-73
2023/09/19 11:53:50;;;;;;;2.60;1.27;;;25.20;99.90;;;;;;5082937;28;20220;-71
2023/09/19 11:56:18;;;;;;;1.83;1.23;;;25.30;99.90;;;;;;5079415;28;20742;-75
2023/09/19 11:58:46;;;;;;;2.67;1.27;;;25.30;99.90;;;;;;5076899;28;20246;-73
2023/09/19 12:01:20;;;;;;;1.33;1.08;;;25.40;99.90;;;;;;5086205;28;20306;-73
2023/09/19 12:03:49;;;;;;;4.75;1.52;;;25.50;99.90;;;;;;5072468;28;20213;-74
2023/09/19 12:06:18;;;;;;;2.75;1.45;;;25.50;99.90;;;;;;5071988;28;20221;-73
2023/09/19 12:08:46;;;;;;;2.13;1.00;;;25.40;99.90;;;;;;5086613;28;20236;-73
2023/09/19 12:11:15;;;;;;;4.60;1.42;;;24.80;99.90;;;;;;5089698;28;20206;-75
2023/09/19 12:13:45;;;;;;;2.47;1.13;;;24.40;99.90;;;;;;5087127;28;20207;-73
2023/09/19 12:16:16;;;;;;;1.63;0.95;;;24.60;99.90;;;;;;5089451;28;20256;-73
2023/09/19 12:18:44;;;;;;;1.50;1.23;;;24.90;99.90;;;;;;5087332;28;20205;-73
2023/09/19 12:21:27;;;;;;;2.40;0.82;;;25.00;99.90;;;;;;5092525;28;20205;-74
2023/09/19 12:24:04;;;;;;;1.75;1.33;;;25.20;99.90;;;;;;5092149;28;20209;-73
2023/09/19 12:26:33;;;;;;;2.33;1.20;;;25.40;99.90;;;;;;5081803;28;20202;-71
2023/09/19 12:29:01;;;;;;;3.60;1.15;;;25.70;99.90;;;;;;5091806;28;20726;-72
2023/09/19 12:31:29;;;;;;;5.88;1.52;;;25.40;99.90;;;;;;5076063;28;20214;-73
2023/09/19 12:33:56;;;;;;;2.53;1.27;;;25.30;99.90;;;;;;5071782;28;20210;-72
2023/09/19 12:36:29;;;;;;;2.38;1.38;;;25.30;99.90;;;;;;5083488;28;20290;-74
2023/09/19 12:38:58;;;;;;;4.10;0.85;;;25.40;99.90;;;;;;5091749;28;20669;-72
2023/09/19 12:41:25;;;;;;;2.70;1.17;;;25.30;99.90;;;;;;5091635;28;20615;-72
2023/09/19 12:43:53;;;;;;;1.30;1.00;;;25.20;99.90;;;;;;5079656;28;20293;-74
2023/09/19 12:46:24;;;;;;;1.90;1.10;;;25.30;99.90;;;;;;5084853;28;20756;-71
2023/09/19 12:49:18;;;;;;;1.95;0.88;;;25.40;99.90;;;;;;5083914;28;20262;-72
2023/09/19 12:51:47;;;;;;;1.40;1.13;;;25.50;99.90;;;;;;5071216;28;20665;-72
2023/09/19 12:54:15;;;;;;;2.05;0.88;;;25.50;99.90;;;;;;5071411;28;20576;-72
2023/09/19 12:56:44;;;;;;;2.72;1.10;;;25.50;99.90;;;;;;5080955;28;20243;-72
2023/09/19 12:59:13;;;;;;;1.67;1.10;;;25.40;99.90;;;;;;5091661;28;20205;-72
2023/09/19 13:01:45;;;;;;;2.45;0.85;;;25.40;99.90;;;;;;5072586;28;20206;-76
2023/09/19 13:04:18;;;;;;;3.15;1.05;;;25.30;99.90;;;;;;5087621;28;20206;-73